Airfield :
LOGIN :

Register | Disclaimer

   EN    FR    IT 

 










Legend :    VFR   Marginal VFR   IFR   Intensive IFR   Very Intensive IFR
Visi :
Ceiling :
>= 8 km
>= 3000ft
5 to 8 km
1000 to 3000 ft
1500m to 5 km
500 to 1000 ft
800 to 1500m
200 to 500 ft
< 800m
< 200 ft
Symbols :   Thunderstorms  Fog  Heavy snow  Heavy precipitations  Wind > 20 kt
SIGMETs :     Misc.  Thunderstorms  Icing  Turbulence  Mountain Waves  Volcanic Ashes






- Airport Elevation : 33 ft
- IATA code : MHZ


EGUN - RAF Mildenhall

CURRENT METAR :
  • 120556Z AUTO 15006KT 9999 CLR 00/00 A2946 RMK AO2 SLP980 T00030003 10013 20003 57027 .

EXPIRED METARs :
  • 120456Z AUTO 19007KT 9999 CLR 01/01 A2949 RMK AO2 SLP990 T00080008 .
  • 120356Z AUTO 21007KT 9999 CLR 01/01 A2952 RMK AO2 SLP000 T00080008 .

TAF AMD TAF EGUN
Valid from the 12 at 04:00 until the 13 at 10:00 UTC


120433Z 1204/1310 22009KT 9999 SCT020 QNH2925INS
BECMG 1210/1211 17010G25KT 8000 -SHRA BKN010 610309 QNH2870INS
TEMPO 1212/1218 17020G30KT BKN009 510003
BECMG 1221/1222 23010G20KT 8000 -SHRA BKN010 610409 QNH2863INS
BECMG 1305/1306 27015G25KT 9999 NSW BKN020 QNH2866INS TX07/1214Z TN01/1204Z



MET'MAP, your aeronautical weather chart ! - Copyright ORBIFLY December 2007 - Disclaimer

ORBIFLY MET'MAP TEAM :

Programming & Development : Alexandra Zaïnal
Concept & original design : Baudouin d'Aumeries
Assistance for programming : Marc-Olivier Méhu
Technical & hardware support : Manuel Goepfert

Contact : metmap@orbifly.com




SOURCES & CREDITS :

   NOAA